Venice, California
Current Conditions -  °F | °C
As of 5:51 AM on Saturday 25 Oct 2014 (Local Time) from KSMO Reporting Station
Overcast Overcast  
Wind Chill: 61°   Ceiling: 9500
Heat Index: 61°   Visibility: 10mi
Dew Point: 49°   Wind: 0mph
Humidity: 64%   Direction: NA
Pressure: 29.99"   Gusts: NA
Location:  33.99°N, 118.46°W
Report Text: KSMO 251251Z AUTO 00000KT 10SM OVC095 16/09 A2999 RMK AO2 SLP154 T01610094 $
Loading
Personal Weather Stations






























Interactive Weather Map
Tropical Storm Tracking
New forecast layout! Learn more

10-Day Weather Forecast

Advertisements
Track Severe Weather on mobile